Impacts METAR Board
IDs:

KPHX - Phoenix/Sky Harbor, AZ, US

Updated at: 2000 UTC 23 Sep 2018
Potential Impact None Slight Moderate High
Time 23/08Z 23/09Z 23/10Z 23/11Z 23/12Z 23/13Z 23/14Z 23/15Z 23/16Z 23/17Z 23/18Z 23/19Z 23/20Z
Temp85 86 84 84 82 80 80 85 88 91 97 98 100
Dewpt45 43 45 46 48 50 50 49 46 47 46 44 37
Altim29.83 29.83 29.82 29.83 29.84 29.85 29.86 29.88 29.89 29.89 29.87 29.84 29.81
VIS10 10 10 10 10 10 10 10 10 10 10 10 10
CIG-- -- 140 140 140 180 230 -- -- -- -- -- --
CoverSCTSCTBKNBKNBKNBKNBKNSCTSCTSCTSCTSCTSCT
FltCatVFRVFRVFRVFRVFRVFRVFRVFRVFRVFRVFRVFRVFR
WX--------------------------
WDir130120120909090100120130110130150140
WSpd5 10 7 4 4 4 6 6 8 8 10 8 12
WGst-- -- -- -- -- -- -- -- -- -- -- -- 17
Raw hourly METARs
KPHX 230751Z 13005KT 10SM SCT150 29/07 A2983 RMK AO2 SLP080 T02940072
KPHX 230851Z 12010KT 10SM SCT150 30/06 A2983 RMK AO2 SLP079 T03000061 50002
KPHX 230951Z 12007KT 10SM BKN140 29/07 A2982 RMK AO2 SLP078 T02890072
KPHX 231051Z 09004KT 10SM BKN140 29/08 A2983 RMK AO2 SLP081 T02890078
KPHX 231151Z 09004KT 10SM BKN140 28/09 A2984 RMK AO2 SLP084 T02780089 10311 20272 53005
KPHX 231251Z 09004KT 10SM FEW120 SCT140 BKN180 27/10 A2985 RMK AO2 SLP088 T02670100
KPHX 231351Z 10006KT 10SM SCT080 BKN230 27/10 A2986 RMK AO2 SLP093 T02670100
KPHX 231451Z 12006KT 10SM FEW080 SCT230 29/09 A2988 RMK AO2 SLP097 T02940094 53012
KPHX 231551Z 13008KT 10SM FEW090 FEW110 SCT250 31/08 A2989 RMK AO2 SLP099 T03110078
KPHX 231651Z 11008KT 10SM FEW110 SCT250 33/08 A2989 RMK AO2 SLP100 T03280083
KPHX 231751Z 13010KT 10SM FEW100 SCT250 36/08 A2987 RMK AO2 SLP092 T03610078 10361 20256 58004
KPHX 231851Z 15008KT 10SM FEW100 SCT250 37/07 A2984 RMK AO2 SLP083 T03670067
KPHX 231951Z 14012G17KT 10SM FEW100 FEW120 SCT250 38/03 A2981 RMK AO2 SLP072 T03780028



Page loaded:  20:02 UTC  |   01:02 PM Pacific  |   02:02 PM Mountain  |   03:02 PM Central  |   04:02 PM Eastern

 

ADVISORIES

FORECASTS

FORECASTS

OBSERVATIONS

USER TOOLS

ABOUT US